sensor_id;sensor_type;location;lat;lon;timestamp;pressure;altitude;pressure_sealevel;temperature;humidity
56374;BME280;58212;47.034;7.376;2023-08-24T00:00:49;95507.19;;;22.06;67.22
56374;BME280;58212;47.034;7.376;2023-08-24T00:03:16;95495.00;;;21.95;68.10
56374;BME280;58212;47.034;7.376;2023-08-24T00:05:43;95494.19;;;21.81;68.33
56374;BME280;58212;47.034;7.376;2023-08-24T00:08:11;95490.09;;;21.83;68.49
56374;BME280;58212;47.034;7.376;2023-08-24T00:10:38;95495.69;;;21.73;68.97
56374;BME280;58212;47.034;7.376;2023-08-24T00:13:05;95487.41;;;21.70;68.85
56374;BME280;58212;47.034;7.376;2023-08-24T00:15:32;95484.81;;;21.65;69.08
56374;BME280;58212;47.034;7.376;2023-08-24T00:17:59;95483.31;;;21.59;69.53
56374;BME280;58212;47.034;7.376;2023-08-24T00:20:26;95484.19;;;21.54;69.50
56374;BME280;58212;47.034;7.376;2023-08-24T00:22:52;95490.09;;;21.56;69.57
56374;BME280;58212;47.034;7.376;2023-08-24T00:25:21;95481.22;;;21.56;69.71
56374;BME280;58212;47.034;7.376;2023-08-24T00:27:47;95488.50;;;21.55;69.80
56374;BME280;58212;47.034;7.376;2023-08-24T00:30:14;95490.41;;;21.55;69.59
56374;BME280;58212;47.034;7.376;2023-08-24T00:32:44;95488.81;;;21.54;69.69
56374;BME280;58212;47.034;7.376;2023-08-24T00:35:11;95494.69;;;21.56;69.88
56374;BME280;58212;47.034;7.376;2023-08-24T00:37:38;95485.13;;;21.63;69.58
56374;BME280;58212;47.034;7.376;2023-08-24T00:40:06;95487.22;;;21.66;69.54
56374;BME280;58212;47.034;7.376;2023-08-24T00:42:38;95477.44;;;21.70;69.73
56374;BME280;58212;47.034;7.376;2023-08-24T00:45:06;95473.47;;;21.68;69.88
56374;BME280;58212;47.034;7.376;2023-08-24T00:47:34;95470.97;;;21.71;69.57
56374;BME280;58212;47.034;7.376;2023-08-24T00:50:03;95471.44;;;21.73;69.84
56374;BME280;58212;47.034;7.376;2023-08-24T00:52:31;95467.94;;;21.73;70.02
56374;BME280;58212;47.034;7.376;2023-08-24T00:54:59;95469.94;;;21.81;69.66
56374;BME280;58212;47.034;7.376;2023-08-24T00:57:27;95474.34;;;21.77;69.97
56374;BME280;58212;47.034;7.376;2023-08-24T00:59:56;95469.56;;;21.74;70.16
56374;BME280;58212;47.034;7.376;2023-08-24T01:02:22;95471.66;;;21.63;70.60
56374;BME280;58212;47.034;7.376;2023-08-24T01:04:52;95467.47;;;21.57;70.91
56374;BME280;58212;47.034;7.376;2023-08-24T01:07:19;95462.56;;;21.59;70.78
56374;BME280;58212;47.034;7.376;2023-08-24T01:09:46;95457.28;;;21.68;70.22
56374;BME280;58212;47.034;7.376;2023-08-24T01:12:20;95449.41;;;21.58;70.74
56374;BME280;58212;47.034;7.376;2023-08-24T01:15:00;95451.31;;;21.57;70.78
56374;BME280;58212;47.034;7.376;2023-08-24T01:17:30;95448.41;;;21.54;70.75
56374;BME280;58212;47.034;7.376;2023-08-24T01:19:59;95448.41;;;21.54;70.44
56374;BME280;58212;47.034;7.376;2023-08-24T01:22:34;95449.91;;;21.46;70.86
56374;BME280;58212;47.034;7.376;2023-08-24T01:25:13;95447.41;;;21.50;70.52
56374;BME280;58212;47.034;7.376;2023-08-24T01:27:42;95446.72;;;21.44;70.49
56374;BME280;58212;47.034;7.376;2023-08-24T01:30:10;95448.13;;;21.41;70.36
56374;BME280;58212;47.034;7.376;2023-08-24T01:32:37;95446.09;;;21.47;69.94
56374;BME280;58212;47.034;7.376;2023-08-24T01:35:05;95439.63;;;21.48;69.71
56374;BME280;58212;47.034;7.376;2023-08-24T01:37:32;95438.63;;;21.44;70.13
56374;BME280;58212;47.034;7.376;2023-08-24T01:40:04;95432.84;;;21.37;70.45
56374;BME280;58212;47.034;7.376;2023-08-24T01:42:37;95435.13;;;21.30;70.55
56374;BME280;58212;47.034;7.376;2023-08-24T01:45:12;95425.66;;;21.32;70.57
56374;BME280;58212;47.034;7.376;2023-08-24T01:47:40;95429.16;;;21.33;70.03
56374;BME280;58212;47.034;7.376;2023-08-24T01:50:08;95432.63;;;21.20;70.88
56374;BME280;58212;47.034;7.376;2023-08-24T01:52:36;95429.31;;;21.09;71.25
56374;BME280;58212;47.034;7.376;2023-08-24T01:55:03;95430.19;;;21.05;71.55
56374;BME280;58212;47.034;7.376;2023-08-24T01:57:30;95436.16;;;21.02;71.44
56374;BME280;58212;47.034;7.376;2023-08-24T01:59:56;95434.44;;;20.92;71.72
56374;BME280;58212;47.034;7.376;2023-08-24T02:02:25;95430.94;;;20.91;71.96
56374;BME280;58212;47.034;7.376;2023-08-24T02:04:52;95433.06;;;20.94;71.82
56374;BME280;58212;47.034;7.376;2023-08-24T02:07:19;95431.16;;;20.95;71.47
56374;BME280;58212;47.034;7.376;2023-08-24T02:09:47;95429.38;;;20.90;71.73
56374;BME280;58212;47.034;7.376;2023-08-24T02:12:14;95431.25;;;20.90;71.53
56374;BME280;58212;47.034;7.376;2023-08-24T02:14:41;95431.66;;;20.83;71.66
56374;BME280;58212;47.034;7.376;2023-08-24T02:17:08;95418.34;;;20.73;72.08
56374;BME280;58212;47.034;7.376;2023-08-24T02:19:36;95414.69;;;20.69;71.91
56374;BME280;58212;47.034;7.376;2023-08-24T02:22:02;95409.50;;;20.73;71.61
56374;BME280;58212;47.034;7.376;2023-08-24T02:24:29;95407.59;;;20.73;71.31
56374;BME280;58212;47.034;7.376;2023-08-24T02:26:56;95408.44;;;20.87;70.67
56374;BME280;58212;47.034;7.376;2023-08-24T02:29:22;95412.81;;;20.83;70.86
56374;BME280;58212;47.034;7.376;2023-08-24T02:31:49;95410.41;;;20.82;70.88
56374;BME280;58212;47.034;7.376;2023-08-24T02:34:16;95415.09;;;20.76;71.11
56374;BME280;58212;47.034;7.376;2023-08-24T02:36:44;95402.94;;;20.79;71.01
56374;BME280;58212;47.034;7.376;2023-08-24T02:39:11;95399.22;;;20.75;71.39
56374;BME280;58212;47.034;7.376;2023-08-24T02:41:39;95392.91;;;20.66;71.50
56374;BME280;58212;47.034;7.376;2023-08-24T02:44:05;95391.34;;;20.65;71.78
56374;BME280;58212;47.034;7.376;2023-08-24T02:46:32;95399.22;;;20.61;71.87
56374;BME280;58212;47.034;7.376;2023-08-24T02:49:00;95392.63;;;20.67;71.60
56374;BME280;58212;47.034;7.376;2023-08-24T02:51:27;95396.94;;;20.68;71.75
56374;BME280;58212;47.034;7.376;2023-08-24T02:53:57;95392.63;;;20.67;71.82
56374;BME280;58212;47.034;7.376;2023-08-24T02:56:23;95385.56;;;20.58;72.18
56374;BME280;58212;47.034;7.376;2023-08-24T02:58:50;95387.50;;;20.52;72.33
56374;BME280;58212;47.034;7.376;2023-08-24T03:01:18;95388.91;;;20.50;72.20
56374;BME280;58212;47.034;7.376;2023-08-24T03:03:44;95385.91;;;20.51;72.58
56374;BME280;58212;47.034;7.376;2023-08-24T03:06:11;95385.00;;;20.42;72.92
56374;BME280;58212;47.034;7.376;2023-08-24T03:08:38;95382.91;;;20.39;72.80
56374;BME280;58212;47.034;7.376;2023-08-24T03:11:07;95387.97;;;20.40;72.99
56374;BME280;58212;47.034;7.376;2023-08-24T03:13:36;95385.50;;;20.44;72.59
56374;BME280;58212;47.034;7.376;2023-08-24T03:16:03;95385.00;;;20.42;72.54
56374;BME280;58212;47.034;7.376;2023-08-24T03:18:31;95380.72;;;20.41;72.69
56374;BME280;58212;47.034;7.376;2023-08-24T03:20:58;95378.69;;;20.33;73.13
56374;BME280;58212;47.034;7.376;2023-08-24T03:23:26;95386.47;;;20.34;72.96
56374;BME280;58212;47.034;7.376;2023-08-24T03:25:55;95375.22;;;20.32;73.37
56374;BME280;58212;47.034;7.376;2023-08-24T03:28:24;95371.72;;;20.32;73.10
56374;BME280;58212;47.034;7.376;2023-08-24T03:30:52;95377.69;;;20.29;73.19
56374;BME280;58212;47.034;7.376;2023-08-24T03:33:21;95372.56;;;20.27;73.41
56374;BME280;58212;47.034;7.376;2023-08-24T03:35:48;95379.47;;;20.33;73.21
56374;BME280;58212;47.034;7.376;2023-08-24T03:38:15;95380.22;;;20.39;72.98
56374;BME280;58212;47.034;7.376;2023-08-24T03:40:42;95384.41;;;20.26;73.30
56374;BME280;58212;47.034;7.376;2023-08-24T03:43:10;95373.81;;;20.35;73.19
56374;BME280;58212;47.034;7.376;2023-08-24T03:45:38;95371.53;;;20.28;73.57
56374;BME280;58212;47.034;7.376;2023-08-24T03:48:05;95373.91;;;20.30;73.30
56374;BME280;58212;47.034;7.376;2023-08-24T03:50:32;95371.22;;;20.30;73.38
56374;BME280;58212;47.034;7.376;2023-08-24T03:52:59;95373.63;;;20.31;73.21
56374;BME280;58212;47.034;7.376;2023-08-24T03:55:27;95371.13;;;20.35;73.17
56374;BME280;58212;47.034;7.376;2023-08-24T03:57:54;95370.13;;;20.31;73.09
56374;BME280;58212;47.034;7.376;2023-08-24T04:00:23;95365.38;;;20.23;73.52
56374;BME280;58212;47.034;7.376;2023-08-24T04:02:52;95373.97;;;20.25;73.55
56374;BME280;58212;47.034;7.376;2023-08-24T04:05:23;95371.34;;;20.20;73.58
56374;BME280;58212;47.034;7.376;2023-08-24T04:07:52;95378.09;;;20.17;73.83
56374;BME280;58212;47.034;7.376;2023-08-24T04:10:19;95378.03;;;20.04;74.11
56374;BME280;58212;47.034;7.376;2023-08-24T04:12:45;95383.97;;;20.00;74.22
56374;BME280;58212;47.034;7.376;2023-08-24T04:15:12;95384.28;;;19.80;74.49
56374;BME280;58212;47.034;7.376;2023-08-24T04:17:39;95386.81;;;19.72;75.06
56374;BME280;58212;47.034;7.376;2023-08-24T04:20:08;95384.50;;;19.65;74.92
56374;BME280;58212;47.034;7.376;2023-08-24T04:22:36;95390.00;;;19.55;75.53
56374;BME280;58212;47.034;7.376;2023-08-24T04:25:03;95395.09;;;19.94;74.24
56374;BME280;58212;47.034;7.376;2023-08-24T04:27:31;95390.91;;;20.07;73.48
56374;BME280;58212;47.034;7.376;2023-08-24T04:29:58;95393.22;;;20.13;73.25
56374;BME280;58212;47.034;7.376;2023-08-24T04:32:26;95397.94;;;20.21;72.55
56374;BME280;58212;47.034;7.376;2023-08-24T04:34:54;95395.94;;;20.27;72.51
56374;BME280;58212;47.034;7.376;2023-08-24T04:37:22;95388.28;;;20.20;72.59
56374;BME280;58212;47.034;7.376;2023-08-24T04:39:48;95386.06;;;20.22;72.65
56374;BME280;58212;47.034;7.376;2023-08-24T04:42:15;95393.81;;;20.10;72.96
56374;BME280;58212;47.034;7.376;2023-08-24T04:44:41;95397.41;;;20.00;73.29
56374;BME280;58212;47.034;7.376;2023-08-24T04:47:08;95391.91;;;20.29;72.31
56374;BME280;58212;47.034;7.376;2023-08-24T04:49:35;95391.56;;;20.36;72.07
56374;BME280;58212;47.034;7.376;2023-08-24T04:52:02;95395.53;;;20.38;72.04
56374;BME280;58212;47.034;7.376;2023-08-24T04:54:32;95391.97;;;20.43;72.07
56374;BME280;58212;47.034;7.376;2023-08-24T04:56:59;95395.38;;;20.48;71.79
56374;BME280;58212;47.034;7.376;2023-08-24T04:59:25;95403.25;;;20.59;71.44
56374;BME280;58212;47.034;7.376;2023-08-24T05:01:52;95402.19;;;20.60;71.46
56374;BME280;58212;47.034;7.376;2023-08-24T05:04:19;95398.09;;;20.62;71.26
56374;BME280;58212;47.034;7.376;2023-08-24T05:06:45;95398.75;;;20.73;71.17
56374;BME280;58212;47.034;7.376;2023-08-24T05:09:12;95395.66;;;20.79;70.82
56374;BME280;58212;47.034;7.376;2023-08-24T05:11:40;95393.59;;;20.90;70.41
56374;BME280;58212;47.034;7.376;2023-08-24T05:14:07;95405.84;;;20.96;70.11
56374;BME280;58212;47.034;7.376;2023-08-24T05:16:33;95394.03;;;21.11;69.54
56374;BME280;58212;47.034;7.376;2023-08-24T05:19:00;95395.16;;;21.37;68.91
56374;BME280;58212;47.034;7.376;2023-08-24T05:21:28;95394.63;;;21.62;67.86
56374;BME280;58212;47.034;7.376;2023-08-24T05:23:56;95397.22;;;21.67;67.78
56374;BME280;58212;47.034;7.376;2023-08-24T05:26:23;95407.00;;;21.36;68.46
56374;BME280;58212;47.034;7.376;2023-08-24T05:28:52;95407.31;;;21.48;68.59
56374;BME280;58212;47.034;7.376;2023-08-24T05:31:19;95408.41;;;21.74;68.03
56374;BME280;58212;47.034;7.376;2023-08-24T05:33:46;95402.53;;;22.22;66.51
56374;BME280;58212;47.034;7.376;2023-08-24T05:36:12;95406.59;;;22.33;65.65
56374;BME280;58212;47.034;7.376;2023-08-24T05:38:39;95402.84;;;22.87;64.05
56374;BME280;58212;47.034;7.376;2023-08-24T05:41:10;95419.16;;;22.60;64.63
56374;BME280;58212;47.034;7.376;2023-08-24T05:43:36;95414.22;;;22.75;64.73
56374;BME280;58212;47.034;7.376;2023-08-24T05:46:04;95417.63;;;22.89;63.88
56374;BME280;58212;47.034;7.376;2023-08-24T05:48:31;95414.53;;;23.35;62.50
56374;BME280;58212;47.034;7.376;2023-08-24T05:50:58;95424.28;;;23.45;62.18
56374;BME280;58212;47.034;7.376;2023-08-24T05:53:24;95422.34;;;23.06;63.58
56374;BME280;58212;47.034;7.376;2023-08-24T05:55:51;95428.91;;;23.14;63.52
56374;BME280;58212;47.034;7.376;2023-08-24T05:58:18;95423.66;;;22.86;64.05
56374;BME280;58212;47.034;7.376;2023-08-24T06:00:44;95425.94;;;22.93;64.90
56374;BME280;58212;47.034;7.376;2023-08-24T06:03:13;95427.81;;;23.23;63.95
56374;BME280;58212;47.034;7.376;2023-08-24T06:05:40;95416.72;;;23.64;62.96
56374;BME280;58212;47.034;7.376;2023-08-24T06:08:07;95419.56;;;23.59;63.46
56374;BME280;58212;47.034;7.376;2023-08-24T06:10:33;95419.59;;;23.68;62.75
56374;BME280;58212;47.034;7.376;2023-08-24T06:13:00;95417.09;;;23.89;61.87
56374;BME280;58212;47.034;7.376;2023-08-24T06:15:28;95420.97;;;24.05;61.88
56374;BME280;58212;47.034;7.376;2023-08-24T06:17:55;95420.00;;;24.09;62.61
56374;BME280;58212;47.034;7.376;2023-08-24T06:20:23;95418.75;;;24.07;62.17
56374;BME280;58212;47.034;7.376;2023-08-24T06:22:50;95425.63;;;24.56;61.13
56374;BME280;58212;47.034;7.376;2023-08-24T06:25:16;95422.38;;;24.02;62.81
56374;BME280;58212;47.034;7.376;2023-08-24T06:27:43;95426.31;;;23.79;63.47
56374;BME280;58212;47.034;7.376;2023-08-24T06:30:11;95417.88;;;23.41;63.89
56374;BME280;58212;47.034;7.376;2023-08-24T06:32:38;95422.34;;;23.37;64.82
56374;BME280;58212;47.034;7.376;2023-08-24T06:35:08;95418.84;;;23.36;64.34
56374;BME280;58212;47.034;7.376;2023-08-24T06:37:36;95425.47;;;23.30;66.26
56374;BME280;58212;47.034;7.376;2023-08-24T06:40:05;95421.03;;;23.34;65.52
56374;BME280;58212;47.034;7.376;2023-08-24T06:42:32;95425.03;;;23.37;64.43
56374;BME280;58212;47.034;7.376;2023-08-24T06:45:00;95425.03;;;23.37;64.70
56374;BME280;58212;47.034;7.376;2023-08-24T06:47:26;95423.75;;;23.34;65.49
56374;BME280;58212;47.034;7.376;2023-08-24T06:49:53;95426.44;;;23.74;64.09
56374;BME280;58212;47.034;7.376;2023-08-24T06:52:20;95420.53;;;24.54;61.22
56374;BME280;58212;47.034;7.376;2023-08-24T06:54:48;95411.00;;;24.65;60.62
56374;BME280;58212;47.034;7.376;2023-08-24T06:57:18;95409.53;;;24.68;60.46
56374;BME280;58212;47.034;7.376;2023-08-24T06:59:45;95410.13;;;24.99;59.45
56374;BME280;58212;47.034;7.376;2023-08-24T07:02:12;95403.75;;;25.04;60.05
56374;BME280;58212;47.034;7.376;2023-08-24T07:04:39;95398.66;;;25.11;59.67
56374;BME280;58212;47.034;7.376;2023-08-24T07:07:06;95393.56;;;25.47;58.59
56374;BME280;58212;47.034;7.376;2023-08-24T07:09:33;95398.06;;;25.81;57.67
56374;BME280;58212;47.034;7.376;2023-08-24T07:12:02;95393.94;;;26.04;56.74
56374;BME280;58212;47.034;7.376;2023-08-24T07:14:32;95387.22;;;26.64;55.18
56374;BME280;58212;47.034;7.376;2023-08-24T07:16:58;95380.94;;;27.05;53.78
56374;BME280;58212;47.034;7.376;2023-08-24T07:19:25;95379.22;;;26.67;55.16
56374;BME280;58212;47.034;7.376;2023-08-24T07:21:52;95381.06;;;26.96;54.61
56374;BME280;58212;47.034;7.376;2023-08-24T07:24:19;95381.09;;;27.20;54.13
56374;BME280;58212;47.034;7.376;2023-08-24T07:26:46;95373.97;;;26.83;54.40
56374;BME280;58212;47.034;7.376;2023-08-24T07:29:14;95374.13;;;26.66;55.22
56374;BME280;58212;47.034;7.376;2023-08-24T07:31:41;95377.53;;;26.21;57.00
56374;BME280;58212;47.034;7.376;2023-08-24T07:34:08;95386.25;;;26.27;56.86
56374;BME280;58212;47.034;7.376;2023-08-24T07:36:35;95390.03;;;25.64;57.89
56374;BME280;58212;47.034;7.376;2023-08-24T07:39:01;95383.78;;;25.93;57.56
56374;BME280;58212;47.034;7.376;2023-08-24T07:41:28;95385.84;;;25.66;58.29
56374;BME280;58212;47.034;7.376;2023-08-24T07:43:55;95386.94;;;25.95;57.49
56374;BME280;58212;47.034;7.376;2023-08-24T07:46:23;95394.41;;;25.98;56.88
56374;BME280;58212;47.034;7.376;2023-08-24T07:48:50;95379.34;;;26.09;56.55
56374;BME280;58212;47.034;7.376;2023-08-24T07:51:16;95387.72;;;25.74;57.25
56374;BME280;58212;47.034;7.376;2023-08-24T07:53:43;95387.59;;;26.21;56.38
56374;BME280;58212;47.034;7.376;2023-08-24T07:56:10;95388.81;;;26.03;56.37
56374;BME280;58212;47.034;7.376;2023-08-24T07:58:36;95385.06;;;26.16;56.27
56374;BME280;58212;47.034;7.376;2023-08-24T08:01:03;95379.59;;;26.45;55.49
56374;BME280;58212;47.034;7.376;2023-08-24T08:03:31;95389.69;;;26.15;54.97
56374;BME280;58212;47.034;7.376;2023-08-24T08:05:59;95386.34;;;26.18;54.96
56374;BME280;58212;47.034;7.376;2023-08-24T08:08:25;95378.00;;;26.44;53.61
56374;BME280;58212;47.034;7.376;2023-08-24T08:10:57;95384.69;;;26.26;53.42
56374;BME280;58212;47.034;7.376;2023-08-24T08:13:25;95384.41;;;26.40;54.24
56374;BME280;58212;47.034;7.376;2023-08-24T08:15:51;95379.09;;;26.97;53.49
56374;BME280;58212;47.034;7.376;2023-08-24T08:18:18;95369.13;;;26.56;53.84
56374;BME280;58212;47.034;7.376;2023-08-24T08:20:50;95378.28;;;26.84;53.91
56374;BME280;58212;47.034;7.376;2023-08-24T08:23:17;95380.34;;;26.66;54.47
56374;BME280;58212;47.034;7.376;2023-08-24T08:25:44;95373.59;;;26.72;54.36
56374;BME280;58212;47.034;7.376;2023-08-24T08:28:10;95370.81;;;26.60;55.28
56374;BME280;58212;47.034;7.376;2023-08-24T08:30:38;95366.84;;;27.36;54.00
56374;BME280;58212;47.034;7.376;2023-08-24T08:33:05;95368.16;;;27.05;54.27
56374;BME280;58212;47.034;7.376;2023-08-24T08:35:31;95364.50;;;26.89;54.99
56374;BME280;58212;47.034;7.376;2023-08-24T08:37:59;95364.88;;;26.79;54.97
56374;BME280;58212;47.034;7.376;2023-08-24T08:40:29;95360.09;;;26.64;55.17
56374;BME280;58212;47.034;7.376;2023-08-24T08:42:57;95364.88;;;26.67;55.34
56374;BME280;58212;47.034;7.376;2023-08-24T08:45:25;95370.19;;;26.96;54.63
56374;BME280;58212;47.034;7.376;2023-08-24T08:47:53;95361.59;;;27.06;54.01
56374;BME280;58212;47.034;7.376;2023-08-24T08:50:22;95361.31;;;27.44;54.04
56374;BME280;58212;47.034;7.376;2023-08-24T08:52:49;95369.66;;;27.27;54.09
56374;BME280;58212;47.034;7.376;2023-08-24T08:55:17;95358.34;;;27.37;53.59
56374;BME280;58212;47.034;7.376;2023-08-24T08:57:47;95362.91;;;27.57;52.98
56374;BME280;58212;47.034;7.376;2023-08-24T09:00:15;95358.38;;;27.61;53.23
56374;BME280;58212;47.034;7.376;2023-08-24T09:02:44;95350.19;;;27.37;54.14
56374;BME280;58212;47.034;7.376;2023-08-24T09:05:11;95357.00;;;27.43;53.67
56374;BME280;58212;47.034;7.376;2023-08-24T09:07:39;95354.50;;;27.75;52.44
56374;BME280;58212;47.034;7.376;2023-08-24T09:10:07;95354.84;;;27.49;52.87
56374;BME280;58212;47.034;7.376;2023-08-24T09:12:35;95349.00;;;28.23;52.33
56374;BME280;58212;47.034;7.376;2023-08-24T09:15:03;95346.56;;;28.46;51.67
56374;BME280;58212;47.034;7.376;2023-08-24T09:17:31;95350.50;;;28.48;50.21
56374;BME280;58212;47.034;7.376;2023-08-24T09:19:59;95345.19;;;28.12;51.90
56374;BME280;58212;47.034;7.376;2023-08-24T09:22:26;95338.53;;;28.37;51.03
56374;BME280;58212;47.034;7.376;2023-08-24T09:24:52;95332.81;;;28.54;50.74
56374;BME280;58212;47.034;7.376;2023-08-24T09:27:21;95342.22;;;29.00;50.02
56374;BME280;58212;47.034;7.376;2023-08-24T09:29:50;95322.19;;;29.24;49.60
56374;BME280;58212;47.034;7.376;2023-08-24T09:32:21;95324.69;;;29.29;49.36
56374;BME280;58212;47.034;7.376;2023-08-24T09:34:49;95330.38;;;29.08;49.86
56374;BME280;58212;47.034;7.376;2023-08-24T09:37:16;95327.56;;;29.36;50.32
56374;BME280;58212;47.034;7.376;2023-08-24T09:39:44;95327.56;;;29.36;49.93
56374;BME280;58212;47.034;7.376;2023-08-24T09:42:11;95320.28;;;29.40;49.41
56374;BME280;58212;47.034;7.376;2023-08-24T09:44:37;95314.38;;;29.38;48.70
56374;BME280;58212;47.034;7.376;2023-08-24T09:47:10;95315.31;;;29.15;49.54
56374;BME280;58212;47.034;7.376;2023-08-24T09:49:37;95311.19;;;29.68;48.86
56374;BME280;58212;47.034;7.376;2023-08-24T09:52:06;95310.50;;;29.39;47.87
56374;BME280;58212;47.034;7.376;2023-08-24T09:54:36;95306.44;;;29.65;48.44
56374;BME280;58212;47.034;7.376;2023-08-24T09:57:04;95310.47;;;29.71;48.26
56374;BME280;58212;47.034;7.376;2023-08-24T09:59:32;95299.75;;;29.46;47.40
56374;BME280;58212;47.034;7.376;2023-08-24T10:02:00;95292.38;;;29.47;46.44
56374;BME280;58212;47.034;7.376;2023-08-24T10:04:33;95300.03;;;29.41;46.89
56374;BME280;58212;47.034;7.376;2023-08-24T10:07:03;95288.78;;;29.93;46.63
56374;BME280;58212;47.034;7.376;2023-08-24T10:09:36;95290.09;;;30.38;45.56
56374;BME280;58212;47.034;7.376;2023-08-24T10:12:07;95279.72;;;30.28;45.96
56374;BME280;58212;47.034;7.376;2023-08-24T10:14:41;95279.25;;;30.22;46.06
56374;BME280;58212;47.034;7.376;2023-08-24T10:17:11;95271.56;;;30.09;45.63
56374;BME280;58212;47.034;7.376;2023-08-24T10:19:39;95268.31;;;30.41;44.46
56374;BME280;58212;47.034;7.376;2023-08-24T10:22:07;95264.50;;;30.88;43.69
56374;BME280;58212;47.034;7.376;2023-08-24T10:24:35;95270.03;;;30.91;42.62
56374;BME280;58212;47.034;7.376;2023-08-24T10:27:02;95268.47;;;30.71;42.95
56374;BME280;58212;47.034;7.376;2023-08-24T10:29:29;95261.25;;;30.40;42.79
56374;BME280;58212;47.034;7.376;2023-08-24T10:31:56;95264.19;;;30.70;42.92
56374;BME280;58212;47.034;7.376;2023-08-24T10:34:23;95262.84;;;30.83;43.35
56374;BME280;58212;47.034;7.376;2023-08-24T10:36:51;95265.63;;;31.06;42.42
56374;BME280;58212;47.034;7.376;2023-08-24T10:39:26;95257.34;;;31.25;41.71
56374;BME280;58212;47.034;7.376;2023-08-24T10:41:53;95249.44;;;31.20;41.24
56374;BME280;58212;47.034;7.376;2023-08-24T10:44:23;95244.16;;;30.85;41.95
56374;BME280;58212;47.034;7.376;2023-08-24T10:47:06;95238.25;;;30.83;41.65
56374;BME280;58212;47.034;7.376;2023-08-24T10:49:33;95231.22;;;31.05;41.94
56374;BME280;58212;47.034;7.376;2023-08-24T10:52:23;95231.94;;;31.51;41.85
56374;BME280;58212;47.034;7.376;2023-08-24T10:54:51;95224.25;;;31.34;41.13
56374;BME280;58212;47.034;7.376;2023-08-24T10:57:19;95221.88;;;31.55;41.21
56374;BME280;58212;47.034;7.376;2023-08-24T10:59:57;95212.31;;;31.72;40.68
56374;BME280;58212;47.034;7.376;2023-08-24T11:02:24;95224.28;;;31.37;40.82
56374;BME280;58212;47.034;7.376;2023-08-24T11:05:12;95214.44;;;31.56;40.92
56374;BME280;58212;47.034;7.376;2023-08-24T11:07:49;95214.41;;;31.82;40.52
56374;BME280;58212;47.034;7.376;2023-08-24T11:10:17;95220.41;;;31.38;40.66
56374;BME280;58212;47.034;7.376;2023-08-24T11:13:12;95212.97;;;31.91;40.63
56374;BME280;58212;47.034;7.376;2023-08-24T11:15:41;95212.00;;;31.77;40.48
56374;BME280;58212;47.034;7.376;2023-08-24T11:18:19;95210.31;;;31.69;39.70
56374;BME280;58212;47.034;7.376;2023-08-24T11:20:47;95210.06;;;31.77;39.58
56374;BME280;58212;47.034;7.376;2023-08-24T11:23:17;95204.50;;;31.74;39.87
56374;BME280;58212;47.034;7.376;2023-08-24T11:25:44;95200.47;;;32.24;38.65
56374;BME280;58212;47.034;7.376;2023-08-24T11:28:13;95199.28;;;32.21;38.06
56374;BME280;58212;47.034;7.376;2023-08-24T11:30:42;95192.97;;;32.17;39.08
56374;BME280;58212;47.034;7.376;2023-08-24T11:33:11;95191.31;;;32.46;37.97
56374;BME280;58212;47.034;7.376;2023-08-24T11:35:39;95197.56;;;32.47;38.66
56374;BME280;58212;47.034;7.376;2023-08-24T11:38:05;95195.41;;;32.63;37.58
56374;BME280;58212;47.034;7.376;2023-08-24T11:40:33;95193.09;;;32.65;37.94
56374;BME280;58212;47.034;7.376;2023-08-24T11:43:00;95190.69;;;33.07;36.69
56374;BME280;58212;47.034;7.376;2023-08-24T11:45:30;95195.28;;;32.92;37.53
56374;BME280;58212;47.034;7.376;2023-08-24T11:47:57;95187.16;;;32.26;38.54
56374;BME280;58212;47.034;7.376;2023-08-24T11:50:24;95189.31;;;32.43;38.86
56374;BME280;58212;47.034;7.376;2023-08-24T11:52:52;95189.72;;;32.45;39.43
56374;BME280;58212;47.034;7.376;2023-08-24T11:55:21;95184.16;;;32.38;39.37
56374;BME280;58212;47.034;7.376;2023-08-24T11:57:49;95183.25;;;32.23;38.94
56374;BME280;58212;47.034;7.376;2023-08-24T12:00:16;95187.84;;;32.53;39.19
56374;BME280;58212;47.034;7.376;2023-08-24T12:02:44;95179.31;;;33.05;38.73
56374;BME280;58212;47.034;7.376;2023-08-24T12:05:22;95178.03;;;32.92;37.25
56374;BME280;58212;47.034;7.376;2023-08-24T12:07:50;95181.41;;;33.19;37.71
56374;BME280;58212;47.034;7.376;2023-08-24T12:10:17;95169.28;;;33.20;37.68
56374;BME280;58212;47.034;7.376;2023-08-24T12:12:44;95169.13;;;33.02;37.48
56374;BME280;58212;47.034;7.376;2023-08-24T12:15:19;95157.69;;;32.93;38.26
56374;BME280;58212;47.034;7.376;2023-08-24T12:17:47;95165.91;;;32.93;38.30
56374;BME280;58212;47.034;7.376;2023-08-24T12:20:18;95161.28;;;33.04;37.92
56374;BME280;58212;47.034;7.376;2023-08-24T12:22:53;95149.53;;;33.04;38.06
56374;BME280;58212;47.034;7.376;2023-08-24T12:25:23;95155.09;;;32.67;37.96
56374;BME280;58212;47.034;7.376;2023-08-24T12:27:51;95154.94;;;32.93;38.30
56374;BME280;58212;47.034;7.376;2023-08-24T12:30:20;95154.06;;;32.82;38.37
56374;BME280;58212;47.034;7.376;2023-08-24T12:32:48;95139.06;;;33.16;38.61
56374;BME280;58212;47.034;7.376;2023-08-24T12:35:16;95130.94;;;33.30;37.70
56374;BME280;58212;47.034;7.376;2023-08-24T12:37:43;95131.63;;;33.89;37.80
56374;BME280;58212;47.034;7.376;2023-08-24T12:40:10;95128.66;;;33.50;36.57
56374;BME280;58212;47.034;7.376;2023-08-24T12:42:37;95119.22;;;33.44;37.27
56374;BME280;58212;47.034;7.376;2023-08-24T12:45:05;95109.84;;;33.49;36.67
56374;BME280;58212;47.034;7.376;2023-08-24T12:47:33;95106.31;;;33.48;36.74
56374;BME280;58212;47.034;7.376;2023-08-24T12:50:07;95101.00;;;33.91;36.02
56374;BME280;58212;47.034;7.376;2023-08-24T12:52:34;95095.50;;;33.94;35.95
56374;BME280;58212;47.034;7.376;2023-08-24T12:55:01;95089.66;;;34.10;35.39
56374;BME280;58212;47.034;7.376;2023-08-24T12:57:29;95083.00;;;34.11;36.66
56374;BME280;58212;47.034;7.376;2023-08-24T12:59:56;95082.69;;;34.33;36.40
56374;BME280;58212;47.034;7.376;2023-08-24T13:02:23;95087.00;;;34.45;34.38
56374;BME280;58212;47.034;7.376;2023-08-24T13:04:51;95083.84;;;34.29;35.45